SARE/RES METAR and TAF weather

Enter ICAO airport designator
Station Type Date Time Source
SARE METAR 2022/06/30 01:00 UTC NOAA

SARE 300100Z 05008KT CAVOK 10/08 Q1014 RMK PP///


Station Type Date Time Source
SARE Decoded METAR 2022/06/30 01:00 UTC NOAA

Resistencia Aero., Argentina (SARE) 27-27S 059-03W 52M
Jun 29, 2022 - 09:00 PM EDT / 2022.06.30 0100 UTC
Wind: from the NE (050 degrees) at 9 MPH (8 KT):0
Visibility: greater than 7 mile(s):0
Temperature: 50 F (10 C)
Dew Point: 46 F (8 C)
Relative Humidity: 87%
Pressure (altimeter): 29.94 in. Hg (1014 hPa)
ob: SARE 300100Z 05008KT CAVOK 10/08 Q1014 RMK PP///
cycle: 1

Station Type Date Time Source
SARE TAF 2022/06/29 18:18 UTC NOAA

TAF TAF SARE 291700Z 2918/3018 02005KT 9999 SCT020 TX18/3017Z TN03/3010Z
BECMG 3002/3004 CAVOK PROB40 3009/3012 2000 BR NSC

Example: see airport list